logo
Search for airport 
image banner adimage banner adimage banner ad
image banner ad

SCHI - Ranchillo

Located in San Carlos, Chile

ICAO - , IATA -

Data provided by Airmate  

General information

Coordinates: S36°25'7" W72°1'59"
Elevation is 541 feet MSL.
 
View others Airports in Bío-Bío

Operational data

Special qualification required
Current time UTC:
Current local time:
Weather at : SCCH - General Bernardo O'higgins ( 18 km )
METAR: SCCH 171400Z 27004KT 0300 FG VV002 04/04 Q1018
View NOTAMs / SUP AIP / TFR affecting this airport [VIEW]
Communications frequencies: [VIEW]

Runways:

RWY identifierQFULength (ft)Width (ft)SurfaceLDA (ft)
02196959UNK
20196959UNK

Airport contact information

Address: San Carlos Chile

Satellite view of SCHI